Time;durP1;ratioP1;P1;durP2;ratioP2;P2;SDS_P1;SDS_P2;PMS_P1;PMS_P2;Temp;Humidity;BMP_temperature;BMP_pressure;BME280_temperature;BME280_humidity;BME280_pressure;Samples;Min_cycle;Max_cycle;Signal;HPM_P1;HPM_P2
2022/12/20 00:00:51;;;;;;;0.70;0.70;;;;;;;;;;4890093;29;20557;-78
2022/12/20 00:03:18;;;;;;;0.70;0.70;;;;;;;;;;4901796;29;20490;-79
2022/12/20 00:05:46;;;;;;;0.70;0.60;;;;;;;;;;4899751;29;20791;-77
2022/12/20 00:08:14;;;;;;;0.70;0.60;;;;;;;;;;4892914;29;20499;-77
2022/12/20 00:10:43;;;;;;;0.70;0.70;;;;;;;;;;4892772;29;20494;-78
2022/12/20 00:13:11;;;;;;;0.70;0.70;;;;;;;;;;4898391;29;20530;-78
2022/12/20 00:15:42;;;;;;;0.70;0.60;;;;;;;;;;4896028;29;20483;-80
2022/12/20 00:18:10;;;;;;;0.80;0.80;;;;;;;;;;4869389;29;20530;-80
2022/12/20 00:20:38;;;;;;;0.70;0.70;;;;;;;;;;4898460;29;20856;-81
2022/12/20 00:23:05;;;;;;;0.80;0.70;;;;;;;;;;4880116;29;20509;-79
2022/12/20 00:25:32;;;;;;;0.90;0.90;;;;;;;;;;4889274;29;20481;-81
2022/12/20 00:28:00;;;;;;;0.80;0.80;;;;;;;;;;4896214;29;20965;-82
2022/12/20 00:30:27;;;;;;;0.70;0.70;;;;;;;;;;4895164;29;20945;-81
2022/12/20 00:32:57;;;;;;;0.70;0.70;;;;;;;;;;4892286;29;20841;-80
2022/12/20 00:35:24;;;;;;;0.70;0.70;;;;;;;;;;4861908;29;20453;-80
2022/12/20 00:37:50;;;;;;;0.70;0.60;;;;;;;;;;4888818;29;20503;-79
2022/12/20 00:40:18;;;;;;;0.70;0.70;;;;;;;;;;4869472;29;20543;-81
2022/12/20 00:42:46;;;;;;;0.70;0.70;;;;;;;;;;4901913;29;20500;-80
2022/12/20 00:45:14;;;;;;;0.70;0.70;;;;;;;;;;4900576;29;20470;-80
2022/12/20 00:47:42;;;;;;;0.70;0.60;;;;;;;;;;4893288;29;20468;-80
2022/12/20 00:50:10;;;;;;;1.73;0.80;;;;;;;;;;4879000;29;20476;-81
2022/12/20 00:52:37;;;;;;;0.70;0.70;;;;;;;;;;4874074;29;20440;-81
2022/12/20 00:55:04;;;;;;;0.70;0.70;;;;;;;;;;4895040;29;20564;-80
2022/12/20 00:57:32;;;;;;;0.70;0.70;;;;;;;;;;4894675;29;20864;-82
2022/12/20 00:59:59;;;;;;;0.70;0.60;;;;;;;;;;4894355;29;21032;-81
2022/12/20 01:02:26;;;;;;;0.77;0.77;;;;;;;;;;4895027;29;20582;-80
2022/12/20 01:04:53;;;;;;;0.70;0.70;;;;;;;;;;4887453;29;20456;-82
2022/12/20 01:07:23;;;;;;;0.70;0.70;;;;;;;;;;4895971;29;20457;-80
2022/12/20 01:09:50;;;;;;;0.70;0.70;;;;;;;;;;4904000;29;20457;-82
2022/12/20 01:12:18;;;;;;;0.70;0.70;;;;;;;;;;4880749;29;20582;-83
2022/12/20 01:14:45;;;;;;;0.70;0.70;;;;;;;;;;4896221;29;20447;-81
2022/12/20 01:17:12;;;;;;;1.03;0.97;;;;;;;;;;4895148;29;20885;-82
2022/12/20 01:19:39;;;;;;;0.80;0.70;;;;;;;;;;4895651;29;21016;-81
2022/12/20 01:22:07;;;;;;;0.70;0.70;;;;;;;;;;4896028;29;20894;-82
2022/12/20 01:24:35;;;;;;;0.70;0.70;;;;;;;;;;4896051;29;20534;-83
2022/12/20 01:27:02;;;;;;;0.70;0.70;;;;;;;;;;4895781;29;20494;-81
2022/12/20 01:29:30;;;;;;;0.70;0.70;;;;;;;;;;4895032;29;20460;-82
2022/12/20 01:31:56;;;;;;;0.70;0.70;;;;;;;;;;4894286;29;20832;-80
2022/12/20 01:34:23;;;;;;;0.70;0.70;;;;;;;;;;4901296;29;20562;-80
2022/12/20 01:36:51;;;;;;;0.70;0.60;;;;;;;;;;4894222;29;20443;-81
2022/12/20 01:39:18;;;;;;;0.90;0.80;;;;;;;;;;4892746;29;20979;-81
2022/12/20 01:41:47;;;;;;;0.70;0.70;;;;;;;;;;4885938;29;22094;-80
2022/12/20 01:44:34;;;;;;;0.67;0.60;;;;;;;;;;4890096;29;20435;-80
2022/12/20 01:47:02;;;;;;;0.70;0.60;;;;;;;;;;4894068;29;20485;-82
2022/12/20 01:49:31;;;;;;;0.83;0.80;;;;;;;;;;4892520;29;20963;-81
2022/12/20 01:52:03;;;;;;;0.80;0.80;;;;;;;;;;4895145;29;20468;-82
2022/12/20 01:54:35;;;;;;;0.80;0.80;;;;;;;;;;4898798;29;20498;-82
2022/12/20 01:57:05;;;;;;;0.70;0.70;;;;;;;;;;4898814;29;20599;-81
2022/12/20 01:59:33;;;;;;;0.70;0.67;;;;;;;;;;4895475;29;20956;-80
2022/12/20 02:02:02;;;;;;;0.70;0.70;;;;;;;;;;4906291;29;20507;-80
2022/12/20 02:04:29;;;;;;;0.63;0.60;;;;;;;;;;4895915;29;20519;-81
2022/12/20 02:06:56;;;;;;;0.70;0.70;;;;;;;;;;4886090;29;21039;-82
2022/12/20 02:09:26;;;;;;;0.70;0.70;;;;;;;;;;4896854;29;20454;-82
2022/12/20 02:11:59;;;;;;;0.67;0.60;;;;;;;;;;4898476;29;20447;-83
2022/12/20 02:14:48;;;;;;;0.70;0.60;;;;;;;;;;4893601;29;20448;-81
2022/12/20 02:17:21;;;;;;;0.90;0.90;;;;;;;;;;4903699;29;20459;-82
2022/12/20 02:20:05;;;;;;;0.60;0.60;;;;;;;;;;4898866;29;20444;-80
2022/12/20 02:22:43;;;;;;;0.70;0.70;;;;;;;;;;4889057;29;20515;-81
2022/12/20 02:25:33;;;;;;;0.70;0.70;;;;;;;;;;4895649;29;20452;-81
2022/12/20 02:28:14;;;;;;;0.70;0.60;;;;;;;;;;4878615;29;20455;-80
2022/12/20 02:30:49;;;;;;;0.60;0.60;;;;;;;;;;4876872;29;20452;-80
2022/12/20 02:33:23;;;;;;;0.70;0.70;;;;;;;;;;4880276;29;20461;-80
2022/12/20 02:35:53;;;;;;;1.00;0.90;;;;;;;;;;4875116;29;20531;-81
2022/12/20 02:38:27;;;;;;;0.83;0.83;;;;;;;;;;4901007;29;20496;-80
2022/12/20 02:41:02;;;;;;;1.03;0.97;;;;;;;;;;4897796;29;20472;-80
2022/12/20 02:46:25;;;;;;;3.40;3.20;;;;;;;;;;4890580;29;20555;-81
2022/12/20 02:48:58;;;;;;;0.60;0.60;;;;;;;;;;4897327;29;20507;-78
2022/12/20 02:51:31;;;;;;;0.70;0.70;;;;;;;;;;4894143;29;20514;-80
2022/12/20 02:54:01;;;;;;;0.70;0.60;;;;;;;;;;4883289;29;20812;-80
2022/12/20 02:56:37;;;;;;;0.60;0.60;;;;;;;;;;4897228;29;20459;-80
2022/12/20 02:59:06;;;;;;;0.70;0.70;;;;;;;;;;4879039;29;20461;-80
2022/12/20 03:01:41;;;;;;;0.60;0.60;;;;;;;;;;4905612;29;20520;-81
2022/12/20 03:04:12;;;;;;;0.70;0.60;;;;;;;;;;4883210;29;20539;-81
2022/12/20 03:06:54;;;;;;;0.60;0.60;;;;;;;;;;4894848;29;20671;-81
2022/12/20 03:09:24;;;;;;;0.60;0.60;;;;;;;;;;4874062;29;20557;-81
2022/12/20 03:12:14;;;;;;;0.70;0.60;;;;;;;;;;4895294;29;20462;-81
2022/12/20 03:14:45;;;;;;;0.60;0.60;;;;;;;;;;4892980;29;20464;-80
2022/12/20 03:17:25;;;;;;;0.60;0.60;;;;;;;;;;4903136;29;20464;-82
2022/12/20 03:19:53;;;;;;;0.70;0.70;;;;;;;;;;4887150;29;20875;-82
2022/12/20 03:22:22;;;;;;;0.70;0.70;;;;;;;;;;4891155;29;20469;-81
2022/12/20 03:24:51;;;;;;;0.70;0.60;;;;;;;;;;4887473;29;20471;-83
2022/12/20 03:27:21;;;;;;;0.60;0.60;;;;;;;;;;4869392;29;20460;-82
2022/12/20 03:29:52;;;;;;;0.70;0.70;;;;;;;;;;4887691;29;20494;-81
2022/12/20 03:32:28;;;;;;;0.60;0.60;;;;;;;;;;4903826;29;20479;-82
2022/12/20 03:35:02;;;;;;;0.80;0.80;;;;;;;;;;4897182;29;20905;-82
2022/12/20 03:37:42;;;;;;;0.60;0.60;;;;;;;;;;4903692;29;20470;-82
2022/12/20 03:40:17;;;;;;;0.60;0.60;;;;;;;;;;4894212;29;20458;-82
2022/12/20 03:43:13;;;;;;;0.70;0.70;;;;;;;;;;4902364;29;20475;-82
2022/12/20 03:45:47;;;;;;;0.60;0.60;;;;;;;;;;4895844;29;20505;-82
2022/12/20 03:48:19;;;;;;;1.00;0.90;;;;;;;;;;4896202;29;20526;-83
2022/12/20 03:50:51;;;;;;;0.60;0.60;;;;;;;;;;4880599;29;20549;-81
2022/12/20 03:53:21;;;;;;;0.70;0.70;;;;;;;;;;4887573;29;20459;-81
2022/12/20 03:55:53;;;;;;;0.80;0.80;;;;;;;;;;4893607;29;20471;-81
2022/12/20 03:58:27;;;;;;;0.60;0.60;;;;;;;;;;4881613;29;20464;-81
2022/12/20 04:00:56;;;;;;;0.60;0.60;;;;;;;;;;4895914;29;20519;-80
2022/12/20 04:03:43;;;;;;;0.60;0.60;;;;;;;;;;4895572;29;20487;-80
2022/12/20 04:06:11;;;;;;;0.70;0.70;;;;;;;;;;4894059;29;20456;-81
2022/12/20 04:08:38;;;;;;;0.80;0.80;;;;;;;;;;4884848;29;20448;-80
2022/12/20 04:11:15;;;;;;;0.60;0.60;;;;;;;;;;4895694;29;20450;-79
2022/12/20 04:13:53;;;;;;;0.70;0.70;;;;;;;;;;4894578;29;20555;-78
2022/12/20 04:16:21;;;;;;;0.70;0.70;;;;;;;;;;4891269;29;20531;-78
2022/12/20 04:18:50;;;;;;;0.63;0.60;;;;;;;;;;4894137;29;20477;-79
2022/12/20 04:21:20;;;;;;;0.60;0.60;;;;;;;;;;4885152;29;20565;-80
2022/12/20 04:23:47;;;;;;;0.60;0.50;;;;;;;;;;4892858;29;20485;-80
2022/12/20 04:26:15;;;;;;;0.70;0.60;;;;;;;;;;4884460;29;20478;-79
2022/12/20 04:28:44;;;;;;;0.60;0.60;;;;;;;;;;4893044;29;20482;-79
2022/12/20 04:31:11;;;;;;;0.60;0.60;;;;;;;;;;4886963;29;20991;-78
2022/12/20 04:33:47;;;;;;;0.60;0.50;;;;;;;;;;4881857;29;20588;-77
2022/12/20 04:36:16;;;;;;;0.60;0.60;;;;;;;;;;4896653;29;20451;-78
2022/12/20 04:38:43;;;;;;;0.60;0.50;;;;;;;;;;4893300;29;20446;-78
2022/12/20 04:41:20;;;;;;;0.60;0.60;;;;;;;;;;4905087;29;20461;-78
2022/12/20 04:43:53;;;;;;;0.60;0.60;;;;;;;;;;4887467;29;20503;-78
2022/12/20 04:46:22;;;;;;;0.60;0.50;;;;;;;;;;4891919;29;20511;-77
2022/12/20 04:48:50;;;;;;;0.60;0.60;;;;;;;;;;4892153;29;20484;-79
2022/12/20 04:51:30;;;;;;;0.60;0.60;;;;;;;;;;4890981;29;20482;-78
2022/12/20 04:53:58;;;;;;;0.60;0.50;;;;;;;;;;4879694;29;20444;-78
2022/12/20 04:56:33;;;;;;;0.60;0.50;;;;;;;;;;4894531;29;20855;-79
2022/12/20 04:59:07;;;;;;;0.60;0.60;;;;;;;;;;4895044;29;20538;-78
2022/12/20 05:01:34;;;;;;;0.70;0.60;;;;;;;;;;4888267;29;20969;-78
2022/12/20 05:04:04;;;;;;;2.10;1.90;;;;;;;;;;4891312;29;20498;-79
2022/12/20 05:06:37;;;;;;;0.60;0.60;;;;;;;;;;4877769;29;20468;-79
2022/12/20 05:09:04;;;;;;;0.60;0.60;;;;;;;;;;4876488;29;20554;-79
2022/12/20 05:11:32;;;;;;;0.60;0.60;;;;;;;;;;4879618;29;20451;-80
2022/12/20 05:13:59;;;;;;;1.03;0.93;;;;;;;;;;4879516;29;20452;-79
2022/12/20 05:16:27;;;;;;;0.60;0.60;;;;;;;;;;4892210;29;20488;-79
2022/12/20 05:18:54;;;;;;;0.60;0.60;;;;;;;;;;4889954;29;20526;-79
2022/12/20 05:27:00;;;;;;;0.60;0.60;;;;;;;;;;4910720;29;20475;-79
2022/12/20 05:29:28;;;;;;;0.60;0.53;;;;;;;;;;4898578;29;20466;-79
2022/12/20 05:31:55;;;;;;;0.60;0.50;;;;;;;;;;4896837;29;20515;-79
2022/12/20 05:34:23;;;;;;;0.60;0.60;;;;;;;;;;4905167;29;20453;-79
2022/12/20 05:36:54;;;;;;;0.60;0.60;;;;;;;;;;4881711;29;20503;-79
2022/12/20 05:39:25;;;;;;;0.70;0.60;;;;;;;;;;4893753;29;20447;-80
2022/12/20 05:41:55;;;;;;;1.23;1.17;;;;;;;;;;4897388;29;20818;-80
2022/12/20 05:44:24;;;;;;;0.90;0.80;;;;;;;;;;4886147;29;20461;-79
2022/12/20 05:46:54;;;;;;;0.60;0.60;;;;;;;;;;4896160;29;20549;-80
2022/12/20 05:49:26;;;;;;;0.60;0.60;;;;;;;;;;4893732;29;20455;-80
2022/12/20 05:51:54;;;;;;;0.60;0.60;;;;;;;;;;4906832;29;20828;-81
2022/12/20 05:54:24;;;;;;;0.60;0.60;;;;;;;;;;4904697;29;20455;-79
2022/12/20 05:57:13;;;;;;;0.60;0.60;;;;;;;;;;4891387;29;20448;-79
2022/12/20 05:59:41;;;;;;;1.23;1.13;;;;;;;;;;4881275;29;20450;-79
2022/12/20 06:02:14;;;;;;;0.60;0.50;;;;;;;;;;4902193;29;20894;-79
2022/12/20 06:04:43;;;;;;;0.60;0.60;;;;;;;;;;4909750;29;20802;-79
2022/12/20 06:07:18;;;;;;;0.60;0.60;;;;;;;;;;4886237;29;20777;-79
2022/12/20 06:09:50;;;;;;;0.90;0.80;;;;;;;;;;4896959;29;20458;-80
2022/12/20 06:12:20;;;;;;;0.60;0.60;;;;;;;;;;4897224;29;20453;-79
2022/12/20 06:14:47;;;;;;;0.60;0.60;;;;;;;;;;4896280;29;20460;-79
2022/12/20 06:17:15;;;;;;;0.60;0.60;;;;;;;;;;4896555;29;20557;-80
2022/12/20 06:19:43;;;;;;;0.60;0.60;;;;;;;;;;4884197;29;20451;-79
2022/12/20 06:22:13;;;;;;;0.60;0.53;;;;;;;;;;4888435;29;20455;-78
2022/12/20 06:24:44;;;;;;;0.60;0.50;;;;;;;;;;4886152;29;20901;-78
2022/12/20 06:27:23;;;;;;;0.60;0.53;;;;;;;;;;4896593;29;20550;-78
2022/12/20 06:30:06;;;;;;;0.60;0.60;;;;;;;;;;4905438;29;20450;-79
2022/12/20 06:32:50;;;;;;;0.60;0.60;;;;;;;;;;4881252;29;20538;-79
2022/12/20 06:35:17;;;;;;;0.80;0.80;;;;;;;;;;4894325;29;20569;-79
2022/12/20 06:37:44;;;;;;;0.60;0.60;;;;;;;;;;4892957;29;20447;-79
2022/12/20 06:40:12;;;;;;;0.60;0.50;;;;;;;;;;4888311;29;21041;-79
2022/12/20 06:42:41;;;;;;;0.60;0.60;;;;;;;;;;4901713;29;20988;-79
2022/12/20 06:45:10;;;;;;;0.60;0.60;;;;;;;;;;4882320;29;20490;-78
2022/12/20 06:47:38;;;;;;;0.60;0.60;;;;;;;;;;4894123;29;20472;-80
2022/12/20 06:50:05;;;;;;;1.13;0.80;;;;;;;;;;4896042;29;20447;-79
2022/12/20 06:52:32;;;;;;;0.60;0.53;;;;;;;;;;4887891;29;20995;-79
2022/12/20 06:54:59;;;;;;;0.60;0.57;;;;;;;;;;4894737;29;21096;-79
2022/12/20 06:57:28;;;;;;;0.60;0.50;;;;;;;;;;4894217;29;20444;-78
2022/12/20 06:59:57;;;;;;;0.70;0.70;;;;;;;;;;4877743;29;20521;-79
2022/12/20 07:02:24;;;;;;;0.70;0.70;;;;;;;;;;4896660;29;20511;-80
2022/12/20 07:04:53;;;;;;;0.60;0.60;;;;;;;;;;4889401;29;20499;-80
2022/12/20 07:07:20;;;;;;;0.70;0.70;;;;;;;;;;4887671;29;20448;-80
2022/12/20 07:09:48;;;;;;;0.60;0.60;;;;;;;;;;4896291;29;20445;-80
2022/12/20 07:12:15;;;;;;;0.60;0.60;;;;;;;;;;4904639;29;20467;-79
2022/12/20 07:14:42;;;;;;;0.60;0.57;;;;;;;;;;4896055;29;20529;-80
2022/12/20 07:17:12;;;;;;;0.60;0.50;;;;;;;;;;4902104;29;20474;-79
2022/12/20 07:19:38;;;;;;;0.60;0.60;;;;;;;;;;4895410;29;20462;-77
2022/12/20 07:22:11;;;;;;;0.77;0.77;;;;;;;;;;4884961;29;20810;-78
2022/12/20 07:24:38;;;;;;;0.60;0.60;;;;;;;;;;4881466;29;21044;-79
2022/12/20 07:27:05;;;;;;;0.60;0.60;;;;;;;;;;4894135;29;20459;-78
2022/12/20 07:29:32;;;;;;;0.60;0.60;;;;;;;;;;4888315;29;20448;-78
2022/12/20 07:31:58;;;;;;;1.10;1.00;;;;;;;;;;4892187;29;20466;-78
2022/12/20 07:34:27;;;;;;;0.60;0.60;;;;;;;;;;4898025;29;20482;-78
2022/12/20 07:36:54;;;;;;;0.70;0.70;;;;;;;;;;4897953;29;20902;-78
2022/12/20 07:39:21;;;;;;;0.60;0.50;;;;;;;;;;4893035;29;20538;-77
2022/12/20 07:41:47;;;;;;;0.60;0.50;;;;;;;;;;4882833;29;20439;-78
2022/12/20 09:09:48;;;;;;;0.60;0.50;;;;;;;;;;4893417;29;20445;-78
2022/12/20 09:12:15;;;;;;;0.90;0.90;;;;;;;;;;4881973;29;20460;-78
2022/12/20 09:14:42;;;;;;;0.60;0.50;;;;;;;;;;4891001;29;20461;-77
2022/12/20 09:17:11;;;;;;;1.07;1.00;;;;;;;;;;4896998;29;20452;-80
2022/12/20 09:19:38;;;;;;;0.63;0.60;;;;;;;;;;4885717;29;20543;-79
2022/12/20 09:22:05;;;;;;;0.67;0.67;;;;;;;;;;4887385;29;20543;-79
2022/12/20 09:24:32;;;;;;;0.60;0.60;;;;;;;;;;4893392;29;20486;-78
2022/12/20 09:27:00;;;;;;;0.60;0.60;;;;;;;;;;4897455;29;20553;-78
2022/12/20 09:29:27;;;;;;;0.70;0.70;;;;;;;;;;4900615;29;20439;-78
2022/12/20 09:32:01;;;;;;;0.60;0.50;;;;;;;;;;4885702;29;20467;-78
2022/12/20 09:34:28;;;;;;;0.60;0.60;;;;;;;;;;4887315;29;20446;-77
2022/12/20 09:36:54;;;;;;;0.60;0.60;;;;;;;;;;4886609;29;20442;-78
2022/12/20 09:39:22;;;;;;;0.60;0.60;;;;;;;;;;4903580;29;20518;-77
2022/12/20 09:41:49;;;;;;;0.60;0.60;;;;;;;;;;4893951;29;20459;-78
2022/12/20 09:44:19;;;;;;;0.60;0.60;;;;;;;;;;4892639;29;20507;-77
2022/12/20 09:46:48;;;;;;;0.70;0.70;;;;;;;;;;4890548;29;20467;-77
2022/12/20 09:49:16;;;;;;;0.60;0.60;;;;;;;;;;4894516;29;20463;-77
2022/12/20 09:51:57;;;;;;;0.60;0.60;;;;;;;;;;4880682;29;20559;-77
2022/12/20 09:54:29;;;;;;;0.60;0.60;;;;;;;;;;4893419;29;20519;-78
2022/12/20 09:56:58;;;;;;;0.70;0.70;;;;;;;;;;4894130;29;20457;-77
2022/12/20 09:59:27;;;;;;;0.60;0.60;;;;;;;;;;4905231;29;20887;-78
2022/12/20 10:01:57;;;;;;;0.60;0.60;;;;;;;;;;4892154;29;20479;-77
2022/12/20 10:04:44;;;;;;;0.60;0.60;;;;;;;;;;4889389;29;20539;-78
2022/12/20 10:07:19;;;;;;;0.80;0.80;;;;;;;;;;4892748;29;20537;-78
2022/12/20 10:10:08;;;;;;;0.60;0.60;;;;;;;;;;4886781;29;20517;-78
2022/12/20 10:12:41;;;;;;;0.60;0.60;;;;;;;;;;4883624;29;20562;-77
2022/12/20 10:15:16;;;;;;;1.07;1.00;;;;;;;;;;4894744;29;20476;-77
2022/12/20 10:17:56;;;;;;;0.60;0.60;;;;;;;;;;4893358;29;20555;-77
2022/12/20 10:20:29;;;;;;;0.60;0.60;;;;;;;;;;4898094;29;20461;-77
2022/12/20 10:22:59;;;;;;;0.60;0.50;;;;;;;;;;4888437;29;21171;-77
2022/12/20 10:25:29;;;;;;;0.60;0.60;;;;;;;;;;4892112;29;20987;-77
2022/12/20 10:28:00;;;;;;;0.70;0.60;;;;;;;;;;4894054;29;20553;-79
2022/12/20 10:30:28;;;;;;;0.60;0.60;;;;;;;;;;4895098;29;20823;-78
2022/12/20 10:32:56;;;;;;;0.60;0.60;;;;;;;;;;4893851;29;20486;-78
2022/12/20 10:35:24;;;;;;;0.60;0.60;;;;;;;;;;4890049;29;20450;-76
2022/12/20 10:37:59;;;;;;;0.60;0.60;;;;;;;;;;4883126;29;20447;-76
2022/12/20 10:40:35;;;;;;;0.60;0.60;;;;;;;;;;4895149;29;20905;-77
2022/12/20 10:43:22;;;;;;;0.60;0.60;;;;;;;;;;4878023;29;20904;-76
2022/12/20 10:45:56;;;;;;;0.70;0.70;;;;;;;;;;4894068;29;20462;-78
2022/12/20 10:48:27;;;;;;;0.70;0.70;;;;;;;;;;4888721;29;20517;-78
2022/12/20 10:50:54;;;;;;;0.60;0.60;;;;;;;;;;4894201;29;20549;-77
2022/12/20 10:53:24;;;;;;;0.70;0.70;;;;;;;;;;4882975;29;20501;-77
2022/12/20 10:55:51;;;;;;;0.60;0.60;;;;;;;;;;4884297;29;20468;-77
2022/12/20 10:58:21;;;;;;;0.63;0.63;;;;;;;;;;4887112;29;20449;-76
2022/12/20 11:00:48;;;;;;;1.30;1.20;;;;;;;;;;4903576;29;20451;-77
2022/12/20 11:03:18;;;;;;;0.60;0.60;;;;;;;;;;4888644;29;20488;-77
2022/12/20 11:05:55;;;;;;;0.60;0.60;;;;;;;;;;4895645;29;20778;-77
2022/12/20 11:08:23;;;;;;;0.70;0.60;;;;;;;;;;4895618;29;20522;-75
2022/12/20 11:11:13;;;;;;;0.70;0.70;;;;;;;;;;4886537;29;20452;-77
2022/12/20 11:13:41;;;;;;;0.60;0.60;;;;;;;;;;4881464;29;20465;-76
2022/12/20 11:16:23;;;;;;;0.60;0.60;;;;;;;;;;4893355;29;20447;-76
2022/12/20 11:18:55;;;;;;;0.60;0.57;;;;;;;;;;4898515;29;20569;-77
2022/12/20 11:21:26;;;;;;;1.37;1.27;;;;;;;;;;4882665;29;20967;-76
2022/12/20 11:23:57;;;;;;;0.70;0.70;;;;;;;;;;4894230;29;20497;-77
2022/12/20 11:26:31;;;;;;;0.63;0.63;;;;;;;;;;4882086;29;20466;-77
2022/12/20 11:29:06;;;;;;;0.90;0.87;;;;;;;;;;4895916;29;20450;-77
2022/12/20 11:31:41;;;;;;;0.60;0.60;;;;;;;;;;4898106;29;20833;-77
2022/12/20 11:34:18;;;;;;;0.60;0.60;;;;;;;;;;4909920;29;20469;-78
2022/12/20 11:36:57;;;;;;;0.60;0.60;;;;;;;;;;4883088;29;20522;-77
2022/12/20 11:39:28;;;;;;;1.00;1.00;;;;;;;;;;4893009;29;21306;-78
2022/12/20 11:42:01;;;;;;;0.70;0.70;;;;;;;;;;4883350;29;20509;-76
2022/12/20 11:44:31;;;;;;;0.60;0.60;;;;;;;;;;4879125;29;20483;-76
2022/12/20 11:47:13;;;;;;;0.70;0.70;;;;;;;;;;4895621;29;20493;-76
2022/12/20 11:49:48;;;;;;;0.60;0.60;;;;;;;;;;4892259;29;20462;-75
2022/12/20 11:52:22;;;;;;;0.60;0.60;;;;;;;;;;4891745;29;20448;-77
2022/12/20 11:54:55;;;;;;;0.60;0.50;;;;;;;;;;4890719;29;20504;-77
2022/12/20 11:57:27;;;;;;;1.53;1.43;;;;;;;;;;4898688;29;20440;-75
2022/12/20 11:59:56;;;;;;;0.60;0.60;;;;;;;;;;4885746;29;20485;-76
2022/12/20 12:02:26;;;;;;;0.60;0.60;;;;;;;;;;4900193;29;20476;-75
2022/12/20 12:04:58;;;;;;;0.60;0.60;;;;;;;;;;4901451;29;20508;-77
2022/12/20 12:07:27;;;;;;;0.70;0.70;;;;;;;;;;4888106;29;20459;-75
2022/12/20 12:09:55;;;;;;;3.13;2.90;;;;;;;;;;4887259;29;20934;-76
2022/12/20 12:12:24;;;;;;;0.70;0.70;;;;;;;;;;4897779;29;20483;-77
2022/12/20 12:14:55;;;;;;;0.70;0.70;;;;;;;;;;4894072;29;20466;-76
2022/12/20 12:17:25;;;;;;;0.70;0.70;;;;;;;;;;4894044;29;20581;-76
2022/12/20 12:19:54;;;;;;;0.60;0.60;;;;;;;;;;4893304;29;20508;-75
2022/12/20 12:22:25;;;;;;;0.70;0.67;;;;;;;;;;4896118;29;20517;-74
2022/12/20 12:24:54;;;;;;;0.67;0.67;;;;;;;;;;4881241;29;20511;-75
2022/12/20 12:27:22;;;;;;;1.47;1.33;;;;;;;;;;4894186;29;20446;-76
2022/12/20 12:29:51;;;;;;;0.70;0.70;;;;;;;;;;4876123;29;20559;-76
2022/12/20 12:32:23;;;;;;;0.70;0.70;;;;;;;;;;4893027;29;20493;-75
2022/12/20 12:34:56;;;;;;;0.70;0.70;;;;;;;;;;4888747;29;20456;-74
2022/12/20 12:37:37;;;;;;;0.70;0.70;;;;;;;;;;4908917;29;20464;-76
2022/12/20 12:40:23;;;;;;;0.70;0.70;;;;;;;;;;4889765;29;20531;-75
2022/12/20 12:43:05;;;;;;;1.20;1.20;;;;;;;;;;4880359;29;20467;-75
2022/12/20 12:45:36;;;;;;;0.60;0.60;;;;;;;;;;4897938;29;20511;-76
2022/12/20 12:48:06;;;;;;;0.63;0.60;;;;;;;;;;4891218;29;20474;-75
2022/12/20 12:50:36;;;;;;;0.70;0.70;;;;;;;;;;4890384;29;21093;-76
2022/12/20 12:53:07;;;;;;;0.60;0.60;;;;;;;;;;4890880;29;20481;-76
2022/12/20 12:55:37;;;;;;;0.60;0.60;;;;;;;;;;4908368;29;20537;-76
2022/12/20 12:58:28;;;;;;;0.80;0.80;;;;;;;;;;4891942;29;20455;-76
2022/12/20 13:00:56;;;;;;;0.87;0.87;;;;;;;;;;4889013;29;20472;-76
2022/12/20 13:03:50;;;;;;;0.60;0.60;;;;;;;;;;4890111;29;20502;-75
2022/12/20 13:06:39;;;;;;;0.70;0.70;;;;;;;;;;4863556;29;20486;-77
2022/12/20 13:09:16;;;;;;;0.80;0.80;;;;;;;;;;4887827;29;20802;-76
2022/12/20 13:11:43;;;;;;;0.80;0.80;;;;;;;;;;4884257;29;20491;-75
2022/12/20 13:14:31;;;;;;;1.20;1.10;;;;;;;;;;4884775;29;20456;-74
2022/12/20 13:17:14;;;;;;;0.60;0.60;;;;;;;;;;4883666;29;20457;-75
2022/12/20 13:19:50;;;;;;;1.30;1.20;;;;;;;;;;4891648;29;20461;-75
2022/12/20 13:22:18;;;;;;;0.70;0.70;;;;;;;;;;4887977;29;20447;-76
2022/12/20 13:24:55;;;;;;;0.70;0.70;;;;;;;;;;4884461;29;20488;-77
2022/12/20 13:27:28;;;;;;;0.70;0.63;;;;;;;;;;4893460;29;20454;-75
2022/12/20 13:29:57;;;;;;;0.70;0.70;;;;;;;;;;4890810;29;20434;-75
2022/12/20 13:32:44;;;;;;;0.60;0.60;;;;;;;;;;4889716;29;21027;-76
2022/12/20 13:35:26;;;;;;;1.70;1.60;;;;;;;;;;4887367;29;20483;-75
2022/12/20 13:37:55;;;;;;;0.60;0.60;;;;;;;;;;4906655;29;20491;-75
2022/12/20 13:40:30;;;;;;;0.60;0.53;;;;;;;;;;4894487;29;20459;-77
2022/12/20 13:42:58;;;;;;;0.60;0.60;;;;;;;;;;4898252;29;20547;-75
2022/12/20 13:45:25;;;;;;;0.70;0.70;;;;;;;;;;4887590;29;20998;-75
2022/12/20 13:47:53;;;;;;;0.60;0.60;;;;;;;;;;4910778;29;20768;-75
2022/12/20 13:50:22;;;;;;;0.67;0.67;;;;;;;;;;4896372;29;20456;-75
2022/12/20 13:52:53;;;;;;;0.60;0.60;;;;;;;;;;4884840;29;20464;-74
2022/12/20 13:55:33;;;;;;;0.60;0.60;;;;;;;;;;4892986;29;20479;-75
2022/12/20 13:58:04;;;;;;;0.60;0.60;;;;;;;;;;4900032;29;20540;-75
2022/12/20 14:00:31;;;;;;;1.00;1.00;;;;;;;;;;4886067;29;20811;-74
2022/12/20 14:03:00;;;;;;;0.70;0.70;;;;;;;;;;4885552;29;20474;-76
2022/12/20 14:05:31;;;;;;;0.60;0.60;;;;;;;;;;4886560;29;20494;-73
2022/12/20 14:08:00;;;;;;;1.53;1.00;;;;;;;;;;4896197;29;21207;-74
2022/12/20 14:10:27;;;;;;;0.90;0.80;;;;;;;;;;4886844;29;20480;-76
2022/12/20 14:12:56;;;;;;;4.40;2.87;;;;;;;;;;4880107;29;20528;-75
2022/12/20 14:15:23;;;;;;;0.60;0.60;;;;;;;;;;4883857;29;20788;-76
2022/12/20 14:17:50;;;;;;;1.00;1.00;;;;;;;;;;4892013;29;20468;-75
2022/12/20 14:20:21;;;;;;;1.23;1.07;;;;;;;;;;4890648;29;20444;-76
2022/12/20 14:22:51;;;;;;;0.60;0.60;;;;;;;;;;4886509;29;20454;-75
2022/12/20 14:25:27;;;;;;;0.80;0.80;;;;;;;;;;4903142;29;20491;-75
2022/12/20 14:27:54;;;;;;;0.60;0.60;;;;;;;;;;4895984;29;20451;-75
2022/12/20 14:30:28;;;;;;;0.80;0.80;;;;;;;;;;4893794;29;20450;-75
2022/12/20 14:32:55;;;;;;;1.00;0.90;;;;;;;;;;4905090;29;20473;-76
2022/12/20 14:35:23;;;;;;;0.60;0.60;;;;;;;;;;4896149;29;20437;-75
2022/12/20 14:37:52;;;;;;;0.60;0.60;;;;;;;;;;4891157;29;20490;-75
2022/12/20 14:40:21;;;;;;;0.60;0.60;;;;;;;;;;4895269;29;20464;-74
2022/12/20 14:42:48;;;;;;;1.80;1.20;;;;;;;;;;4895200;29;20447;-76
2022/12/20 14:45:17;;;;;;;0.70;0.70;;;;;;;;;;4888500;29;20512;-75
2022/12/20 14:47:49;;;;;;;0.80;0.80;;;;;;;;;;4893781;29;20475;-75
2022/12/20 14:50:19;;;;;;;1.10;1.10;;;;;;;;;;4895571;29;20447;-76
2022/12/20 14:52:46;;;;;;;0.70;0.70;;;;;;;;;;4895096;29;20445;-75
2022/12/20 14:55:15;;;;;;;0.60;0.60;;;;;;;;;;4895548;29;20903;-75
2022/12/20 14:57:43;;;;;;;0.60;0.60;;;;;;;;;;4902794;29;20517;-76
2022/12/20 15:00:20;;;;;;;1.73;1.63;;;;;;;;;;4893156;29;20491;-76
2022/12/20 15:02:51;;;;;;;0.90;0.90;;;;;;;;;;4888639;29;20500;-74
2022/12/20 15:05:52;;;;;;;4.00;1.60;;;;;;;;;;4885665;29;20479;-76
2022/12/20 15:08:20;;;;;;;0.80;0.80;;;;;;;;;;4889325;29;21039;-76
2022/12/20 15:10:50;;;;;;;0.70;0.60;;;;;;;;;;4886373;29;20444;-75
2022/12/20 15:13:18;;;;;;;0.60;0.50;;;;;;;;;;4892404;29;20446;-74
2022/12/20 15:15:45;;;;;;;0.60;0.60;;;;;;;;;;4887398;29;20448;-76
2022/12/20 15:18:14;;;;;;;0.60;0.60;;;;;;;;;;4886889;29;20488;-73
2022/12/20 15:20:41;;;;;;;0.60;0.60;;;;;;;;;;4883396;29;20450;-74
2022/12/20 15:23:13;;;;;;;0.77;0.77;;;;;;;;;;4892890;29;20477;-75
2022/12/20 15:25:40;;;;;;;0.60;0.60;;;;;;;;;;4893127;29;20492;-75
2022/12/20 15:28:12;;;;;;;0.60;0.60;;;;;;;;;;4884854;29;20436;-75
2022/12/20 15:30:39;;;;;;;0.60;0.60;;;;;;;;;;4892771;29;20443;-75
2022/12/20 15:33:07;;;;;;;0.60;0.60;;;;;;;;;;4894495;29;20477;-76
2022/12/20 15:35:35;;;;;;;0.60;0.50;;;;;;;;;;4888999;29;21036;-75
2022/12/20 15:38:02;;;;;;;0.60;0.60;;;;;;;;;;4883341;29;20457;-76
2022/12/20 15:40:29;;;;;;;0.60;0.60;;;;;;;;;;4895576;29;20475;-76
2022/12/20 15:42:56;;;;;;;0.60;0.50;;;;;;;;;;4888856;29;20782;-75
2022/12/20 15:45:24;;;;;;;0.60;0.60;;;;;;;;;;4894967;29;20486;-75
2022/12/20 15:47:51;;;;;;;0.60;0.60;;;;;;;;;;4885840;29;20516;-76
2022/12/20 15:50:18;;;;;;;0.80;0.80;;;;;;;;;;4904463;29;20485;-76
2022/12/20 15:52:46;;;;;;;0.70;0.70;;;;;;;;;;4894100;29;20458;-76
2022/12/20 15:55:14;;;;;;;0.60;0.60;;;;;;;;;;4896761;29;20451;-76
2022/12/20 15:57:41;;;;;;;0.60;0.60;;;;;;;;;;4893981;29;21385;-76
2022/12/20 16:00:08;;;;;;;0.70;0.70;;;;;;;;;;4892757;29;20833;-76
2022/12/20 16:02:38;;;;;;;0.70;0.70;;;;;;;;;;4886791;29;20461;-76
2022/12/20 16:05:08;;;;;;;0.80;0.80;;;;;;;;;;4885486;29;20463;-75
2022/12/20 16:07:35;;;;;;;1.30;1.23;;;;;;;;;;4883525;29;20577;-77
2022/12/20 16:10:04;;;;;;;0.80;0.80;;;;;;;;;;4894269;29;20507;-75
2022/12/20 16:12:31;;;;;;;0.60;0.60;;;;;;;;;;4870345;29;20446;-75
2022/12/20 16:14:58;;;;;;;0.70;0.70;;;;;;;;;;4893114;29;20458;-76
2022/12/20 16:17:26;;;;;;;0.70;0.70;;;;;;;;;;4887977;29;21081;-76
2022/12/20 16:19:54;;;;;;;1.83;1.67;;;;;;;;;;4893527;29;20444;-76
2022/12/20 16:22:21;;;;;;;1.30;1.20;;;;;;;;;;4895019;29;20455;-76
2022/12/20 16:24:48;;;;;;;0.70;0.70;;;;;;;;;;4898806;29;20452;-77
2022/12/20 16:27:16;;;;;;;0.70;0.70;;;;;;;;;;4892788;29;20473;-76
2022/12/20 16:29:44;;;;;;;1.13;1.07;;;;;;;;;;4893978;29;20468;-77
2022/12/20 16:32:13;;;;;;;0.70;0.70;;;;;;;;;;4895017;29;20515;-76
2022/12/20 16:34:39;;;;;;;0.60;0.60;;;;;;;;;;4901143;29;20555;-76
2022/12/20 16:37:06;;;;;;;0.60;0.60;;;;;;;;;;4892599;29;20499;-74
2022/12/20 16:39:34;;;;;;;0.60;0.60;;;;;;;;;;4894246;29;21005;-75